createdAt,value
2023-06-04T00:04:28.013Z,100
2023-06-04T00:14:29.807Z,100
2023-06-04T00:34:34.530Z,100
2023-06-04T00:44:37.005Z,100
2023-06-04T00:54:39.355Z,100
2023-06-04T01:04:41.253Z,100
2023-06-04T01:14:43.026Z,100
2023-06-04T01:24:45.250Z,100
2023-06-04T01:34:47.092Z,100
2023-06-04T01:44:49.741Z,100
2023-06-04T01:54:51.925Z,100
2023-06-04T02:04:54.257Z,100
2023-06-04T02:14:56.430Z,100
2023-06-04T02:24:59.096Z,100
2023-06-04T02:35:01.508Z,100
2023-06-04T02:45:03.588Z,100
2023-06-04T02:55:05.588Z,100
2023-06-04T03:05:07.745Z,100
2023-06-04T03:25:19.309Z,100
2023-06-04T03:35:21.895Z,100
2023-06-04T03:45:24.084Z,100
2023-06-04T03:55:25.947Z,100
2023-06-04T04:05:27.874Z,100
2023-06-04T04:15:29.839Z,100
2023-06-04T04:25:31.972Z,100
2023-06-04T04:35:34.279Z,100
2023-06-04T04:45:36.447Z,100
2023-06-04T04:55:38.926Z,100
2023-06-04T05:05:41.174Z,100
2023-06-04T05:15:43.602Z,100
2023-06-04T05:35:48.043Z,100
2023-06-04T06:05:54.447Z,100
2023-06-04T06:15:57.149Z,100
2023-06-04T06:36:02.038Z,100
2023-06-04T06:46:03.830Z,100
2023-06-04T06:56:05.764Z,100
2023-06-04T07:06:07.910Z,100
2023-06-04T07:16:10.270Z,100
2023-06-04T07:26:12.629Z,100
2023-06-04T07:36:15.206Z,100
2023-06-04T07:46:17.652Z,100
2023-06-04T07:56:19.731Z,100
2023-06-04T08:06:22.122Z,100
2023-06-04T08:26:26.374Z,100
2023-06-04T08:56:32.252Z,100
2023-06-04T09:06:34.030Z,100
2023-06-04T09:16:35.770Z,100
2023-06-04T09:26:37.832Z,92
2023-06-04T09:46:42.274Z,80
2023-06-04T09:56:44.698Z,68
2023-06-04T10:16:49.286Z,62
2023-06-04T10:26:50.944Z,62
2023-06-04T10:36:53.121Z,55
2023-06-04T10:46:54.855Z,58
2023-06-04T10:56:57.365Z,57
2023-06-04T11:06:59.388Z,61
2023-06-04T11:17:01.453Z,45
2023-06-04T11:27:12.688Z,54
2023-06-04T11:37:05.948Z,53
2023-06-04T11:47:08.007Z,49
2023-06-04T11:57:10.557Z,47
2023-06-04T12:07:12.786Z,44
2023-06-04T12:17:15.113Z,46
2023-06-04T12:27:17.043Z,45
2023-06-04T12:37:19.049Z,40
2023-06-04T12:47:21.445Z,42
2023-06-04T13:07:28.231Z,47
2023-06-04T13:17:28.392Z,50
2023-06-04T13:37:32.498Z,46
2023-06-04T13:57:36.883Z,45
2023-06-04T14:07:39.182Z,44
2023-06-04T14:47:47.257Z,44
2023-06-04T17:18:17.499Z,52
2023-06-04T17:28:19.883Z,51
2023-06-04T17:38:21.815Z,54
2023-06-04T17:48:23.860Z,52
2023-06-04T17:58:25.509Z,53
2023-06-04T18:08:27.178Z,58
2023-06-04T18:18:29.351Z,56
2023-06-04T18:28:31.142Z,60
2023-06-04T18:48:35.583Z,68
2023-06-04T19:08:39.776Z,86
2023-06-04T19:28:43.921Z,100
2023-06-04T19:38:45.843Z,100
2023-06-04T19:48:48.165Z,100
2023-06-04T19:58:50.744Z,100
2023-06-04T20:08:52.792Z,100
2023-06-04T20:18:54.575Z,100
2023-06-04T20:28:56.613Z,100
2023-06-04T20:38:58.383Z,100
2023-06-04T20:59:01.864Z,100
2023-06-04T21:09:04.375Z,100
2023-06-04T21:19:06.697Z,100
2023-06-04T21:29:08.758Z,100
2023-06-04T21:39:11.263Z,100
2023-06-04T21:49:13.027Z,100
2023-06-04T21:59:15.207Z,100
2023-06-04T22:09:17.859Z,100
2023-06-04T22:19:20.456Z,100
2023-06-04T22:29:22.804Z,100
2023-06-04T22:39:25.185Z,100
2023-06-04T22:49:27.332Z,100
2023-06-04T23:09:31.231Z,100
2023-06-04T23:19:33.112Z,100
2023-06-04T23:29:35.616Z,100
2023-06-04T23:39:37.846Z,100
2023-06-04T23:49:39.677Z,100
2023-06-04T23:59:41.943Z,100
